Time;durP1;ratioP1;P1;durP2;ratioP2;P2;SDS_P1;SDS_P2;PMS_P1;PMS_P2;Temp;Humidity;BMP_temperature;BMP_pressure;BME280_temperature;BME280_humidity;BME280_pressure;Samples;Min_cycle;Max_cycle;Signal;HPM_P1;HPM_P2
2022/06/29 00:00:37;;;;;;;5.95;3.95;;;15.40;99.90;;;;;;5113891;27;20490;-74
2022/06/29 00:03:04;;;;;;;5.07;3.78;;;15.40;99.90;;;;;;5074431;28;20047;-75
2022/06/29 00:05:29;;;;;;;4.50;3.95;;;15.40;99.90;;;;;;5077562;28;20036;-74
2022/06/29 00:07:55;;;;;;;6.20;3.85;;;15.40;99.90;;;;;;5076625;28;20045;-74
2022/06/29 00:10:21;;;;;;;4.95;4.03;;;15.40;99.90;;;;;;5094417;28;20122;-74
2022/06/29 00:12:48;;;;;;;5.20;4.25;;;15.40;99.90;;;;;;5093938;28;20127;-74
2022/06/29 00:15:15;;;;;;;5.13;4.63;;;15.40;99.90;;;;;;5094739;28;20048;-73
2022/06/29 00:17:41;;;;;;;6.03;4.30;;;15.30;99.90;;;;;;5094842;28;20484;-73
2022/06/29 00:20:10;;;;;;;5.00;4.47;;;15.30;99.90;;;;;;5093624;28;20039;-74
2022/06/29 00:22:36;;;;;;;5.15;4.65;;;15.30;99.90;;;;;;5093718;28;20043;-74
2022/06/29 00:25:03;;;;;;;5.25;4.75;;;15.20;99.90;;;;;;5094494;28;20031;-73
2022/06/29 00:27:29;;;;;;;6.25;4.85;;;15.20;99.90;;;;;;5094471;28;20122;-74
2022/06/29 00:29:54;;;;;;;5.60;4.68;;;15.20;99.90;;;;;;5094532;28;20119;-73
2022/06/29 00:32:20;;;;;;;6.22;4.90;;;15.20;99.90;;;;;;5094005;28;20043;-74
2022/06/29 00:34:45;;;;;;;7.10;4.93;;;15.20;99.90;;;;;;5112131;28;20448;-74
2022/06/29 00:37:11;;;;;;;5.75;4.50;;;15.20;99.90;;;;;;5076619;28;20040;-73
2022/06/29 00:39:37;;;;;;;4.78;4.38;;;15.10;99.90;;;;;;5094079;28;20044;-73
2022/06/29 00:42:03;;;;;;;5.57;4.40;;;15.10;99.90;;;;;;5094536;28;20035;-73
2022/06/29 00:44:29;;;;;;;5.90;4.70;;;15.10;99.90;;;;;;5093212;28;20043;-74
2022/06/29 00:47:04;;;;;;;4.85;4.38;;;15.10;99.90;;;;;;5094302;28;20042;-73
2022/06/29 00:49:32;;;;;;;5.65;4.72;;;15.00;99.90;;;;;;5112615;28;20031;-74
2022/06/29 00:52:05;;;;;;;5.63;5.13;;;15.00;99.90;;;;;;5094118;28;20086;-73
2022/06/29 00:54:45;;;;;;;5.93;5.32;;;15.00;99.90;;;;;;5090007;28;20047;-74
2022/06/29 00:57:18;;;;;;;5.68;5.07;;;14.90;99.90;;;;;;5091717;28;20080;-74
2022/06/29 00:59:45;;;;;;;7.45;4.90;;;;;;;;;;5092829;28;20122;-73
2022/06/29 01:02:12;;;;;;;5.50;4.90;;;14.90;99.90;;;;;;5077559;28;20047;-74
2022/06/29 01:04:38;;;;;;;5.22;4.82;;;14.90;99.90;;;;;;5093856;28;20393;-74
2022/06/29 01:07:04;;;;;;;6.03;4.82;;;14.90;99.90;;;;;;5093395;28;20034;-74
2022/06/29 01:09:30;;;;;;;6.38;5.35;;;14.80;99.90;;;;;;5075464;28;20044;-73
2022/06/29 01:11:57;;;;;;;5.45;4.95;;;14.80;99.90;;;;;;5089693;28;20040;-74
2022/06/29 01:14:23;;;;;;;6.57;5.38;;;14.80;99.90;;;;;;5092674;28;20040;-74
2022/06/29 01:16:48;;;;;;;7.82;6.30;;;14.80;99.90;;;;;;5092953;28;20043;-74
2022/06/29 01:19:14;;;;;;;6.60;6.10;;;14.80;99.90;;;;;;5076242;28;20039;-73
2022/06/29 01:21:40;;;;;;;7.15;6.40;;;14.70;99.90;;;;;;5093790;28;20035;-74
2022/06/29 01:24:05;;;;;;;7.07;6.35;;;14.70;99.90;;;;;;5092027;28;20035;-74
2022/06/29 01:26:31;;;;;;;6.95;6.05;;;14.80;99.90;;;;;;5076157;28;20500;-74
2022/06/29 01:28:57;;;;;;;7.30;6.05;;;14.70;99.90;;;;;;5074312;28;20047;-74
2022/06/29 01:31:22;;;;;;;7.70;6.13;;;14.80;99.90;;;;;;5075459;28;20047;-74
2022/06/29 01:33:48;;;;;;;6.60;6.10;;;14.80;99.90;;;;;;5092488;28;20051;-74
2022/06/29 01:36:16;;;;;;;8.00;6.57;;;14.80;99.90;;;;;;5092086;28;20028;-74
2022/06/29 01:38:43;;;;;;;6.30;5.68;;;14.80;99.90;;;;;;5092583;28;20039;-73
2022/06/29 01:41:10;;;;;;;9.30;6.53;;;14.80;99.90;;;;;;5093250;28;20032;-74
2022/06/29 01:43:37;;;;;;;6.75;6.13;;;14.90;99.90;;;;;;5092715;28;20054;-74
2022/06/29 01:46:03;;;;;;;7.90;6.53;;;14.90;99.90;;;;;;5073989;28;20036;-75
2022/06/29 01:48:28;;;;;;;6.40;5.80;;;14.90;99.90;;;;;;5092288;28;20036;-76
2022/06/29 01:50:54;;;;;;;7.18;6.10;;;14.90;99.90;;;;;;5092374;28;20124;-74
2022/06/29 01:53:20;;;;;;;6.65;6.05;;;15.00;99.90;;;;;;5091547;28;20044;-74
2022/06/29 01:55:45;;;;;;;7.25;6.55;;;15.00;99.90;;;;;;5090849;28;20083;-74
2022/06/29 01:58:12;;;;;;;7.38;6.70;;;15.00;99.90;;;;;;5092493;28;20075;-74
2022/06/29 02:00:37;;;;;;;6.55;5.95;;;15.00;99.90;;;;;;5091738;28;20119;-72
2022/06/29 02:03:03;;;;;;;7.20;6.47;;;15.10;99.90;;;;;;5074548;28;20127;-74
2022/06/29 02:05:28;;;;;;;9.65;6.50;;;15.00;99.90;;;;;;5111436;28;20099;-74
2022/06/29 02:07:54;;;;;;;7.85;6.97;;;15.10;99.90;;;;;;5092520;28;20039;-73
2022/06/29 02:10:19;;;;;;;7.60;6.82;;;15.10;99.90;;;;;;5093062;28;20165;-73
2022/06/29 02:12:45;;;;;;;7.28;6.68;;;15.10;99.90;;;;;;5093039;28;20122;-73
2022/06/29 02:15:11;;;;;;;7.40;6.70;;;15.10;99.90;;;;;;5092802;28;20035;-74
2022/06/29 02:17:36;;;;;;;7.28;6.57;;;15.10;99.90;;;;;;5092064;28;20123;-73
2022/06/29 02:20:03;;;;;;;9.68;7.20;;;15.20;99.90;;;;;;5088711;28;20043;-75
2022/06/29 02:22:28;;;;;;;7.30;6.65;;;15.20;99.90;;;;;;5089457;28;20031;-74
2022/06/29 02:24:54;;;;;;;7.97;6.47;;;15.20;99.90;;;;;;5092701;28;20043;-74
2022/06/29 02:27:19;;;;;;;7.30;6.60;;;15.30;99.90;;;;;;5091610;28;20036;-74
2022/06/29 02:29:45;;;;;;;7.78;6.85;;;15.30;99.90;;;;;;5091371;28;20036;-74
2022/06/29 02:34:55;;;;;;;7.53;6.18;;;15.30;99.90;;;;;;5112315;27;20044;-74
2022/06/29 02:37:21;;;;;;;7.55;6.85;;;15.30;99.90;;;;;;5091682;28;20039;-74
2022/06/29 02:39:46;;;;;;;6.68;5.97;;;15.30;99.90;;;;;;5096434;28;20100;-73
2022/06/29 02:42:13;;;;;;;7.25;6.20;;;15.40;99.90;;;;;;5096065;28;20044;-74
2022/06/29 02:44:39;;;;;;;8.55;6.55;;;15.30;99.90;;;;;;5095734;28;20047;-73
2022/06/29 02:47:06;;;;;;;7.70;6.70;;;15.30;99.90;;;;;;5112047;28;20042;-74
2022/06/29 02:49:32;;;;;;;6.60;6.00;;;15.40;99.90;;;;;;5085993;28;20032;-74
2022/06/29 02:51:58;;;;;;;6.90;6.15;;;15.30;99.90;;;;;;5110771;28;20093;-74
2022/06/29 02:54:23;;;;;;;8.07;6.30;;;15.40;99.90;;;;;;5095140;28;20435;-74
2022/06/29 02:56:49;;;;;;;7.00;6.30;;;15.40;99.90;;;;;;5093290;28;20067;-73
2022/06/29 02:59:14;;;;;;;7.03;6.30;;;15.30;99.90;;;;;;5076112;28;20385;-74
2022/06/29 03:01:40;;;;;;;8.27;6.65;;;15.40;99.90;;;;;;5093087;27;20384;-74
2022/06/29 03:04:05;;;;;;;7.72;6.10;;;15.30;99.90;;;;;;5094997;28;20046;-74
2022/06/29 03:06:31;;;;;;;7.80;7.00;;;15.40;99.90;;;;;;5094279;28;20558;-74
2022/06/29 03:08:57;;;;;;;7.55;6.68;;;15.30;99.90;;;;;;5101427;22;20051;-75
2022/06/29 03:11:22;;;;;;;7.63;6.80;;;15.30;99.90;;;;;;5093596;28;20444;-75
2022/06/29 03:13:48;;;;;;;7.38;6.88;;;15.30;99.90;;;;;;5094270;28;20134;-75
2022/06/29 03:16:13;;;;;;;8.02;7.20;;;15.30;99.90;;;;;;5091496;28;20038;-75
2022/06/29 03:18:39;;;;;;;7.75;7.05;;;15.20;99.90;;;;;;5075684;28;20126;-74
2022/06/29 03:21:05;;;;;;;7.63;7.03;;;15.20;99.90;;;;;;5075693;28;20044;-75
2022/06/29 03:23:30;;;;;;;8.27;7.22;;;15.20;99.90;;;;;;5094438;28;20058;-75
2022/06/29 03:25:56;;;;;;;8.85;6.90;;;15.20;99.90;;;;;;5093092;28;20066;-74
2022/06/29 03:28:21;;;;;;;7.57;6.78;;;15.20;99.90;;;;;;5093544;28;20050;-74
2022/06/29 03:30:47;;;;;;;7.57;6.80;;;15.20;99.90;;;;;;5078593;28;20489;-75
2022/06/29 03:33:12;;;;;;;8.75;7.65;;;15.20;99.90;;;;;;5090889;28;20070;-74
2022/06/29 03:35:38;;;;;;;7.75;7.05;;;15.20;99.90;;;;;;5059824;28;20465;-75
2022/06/29 03:38:04;;;;;;;7.88;6.53;;;15.20;99.90;;;;;;5094473;28;20059;-75
2022/06/29 03:40:29;;;;;;;13.15;7.82;;;15.20;99.90;;;;;;5110488;28;20042;-75
2022/06/29 03:42:55;;;;;;;8.23;7.43;;;15.30;99.90;;;;;;5093584;28;20091;-74
2022/06/29 03:45:22;;;;;;;26.42;8.30;;;15.30;99.90;;;;;;5074934;28;20044;-75
2022/06/29 03:47:48;;;;;;;11.18;7.80;;;15.30;99.90;;;;;;5071818;28;20098;-76
2022/06/29 03:50:14;;;;;;;10.95;7.32;;;15.30;99.90;;;;;;5079384;28;20485;-76
2022/06/29 03:52:40;;;;;;;21.95;7.80;;;15.30;99.90;;;;;;5075709;28;20054;-75
2022/06/29 03:55:06;;;;;;;11.38;7.40;;;15.30;99.90;;;;;;5077292;28;20112;-75
2022/06/29 03:57:32;;;;;;;7.75;6.93;;;15.30;99.90;;;;;;5093280;28;20040;-76
2022/06/29 03:59:58;;;;;;;7.20;6.50;;;15.30;99.90;;;;;;5080493;28;20090;-75
2022/06/29 04:02:25;;;;;;;7.82;7.20;;;15.30;99.90;;;;;;5089838;28;20032;-75
2022/06/29 04:04:51;;;;;;;8.93;7.50;;;15.30;99.90;;;;;;5077299;28;20142;-75
2022/06/29 04:07:16;;;;;;;8.88;7.40;;;15.30;99.90;;;;;;5090467;28;20046;-75
2022/06/29 04:09:42;;;;;;;9.73;7.72;;;15.30;99.90;;;;;;5092001;28;20051;-75
2022/06/29 04:12:08;;;;;;;7.85;7.18;;;15.40;99.90;;;;;;5076129;28;20384;-75
2022/06/29 04:14:33;;;;;;;8.57;7.80;;;15.30;99.90;;;;;;5093082;28;20115;-75
2022/06/29 04:16:59;;;;;;;37.03;8.93;;;15.40;99.90;;;;;;5092256;28;20043;-75
2022/06/29 04:19:25;;;;;;;14.90;8.35;;;15.40;99.90;;;;;;5090353;28;20040;-75
2022/06/29 04:21:51;;;;;;;8.60;7.32;;;15.40;99.90;;;;;;5087588;28;20041;-75
2022/06/29 04:24:17;;;;;;;8.15;7.32;;;15.50;99.90;;;;;;5105206;28;20043;-76
2022/06/29 04:26:44;;;;;;;10.95;7.07;;;15.50;99.90;;;;;;5087906;28;20456;-76
2022/06/29 04:29:10;;;;;;;7.68;7.03;;;15.50;99.90;;;;;;5091931;28;20051;-75
2022/06/29 04:31:35;;;;;;;9.27;7.50;;;15.60;99.90;;;;;;5089319;28;20036;-75
2022/06/29 04:34:01;;;;;;;8.65;7.78;;;15.70;99.90;;;;;;5074118;28;20092;-75
2022/06/29 04:36:27;;;;;;;16.48;7.93;;;15.70;99.90;;;;;;5089421;28;20083;-74
2022/06/29 04:38:54;;;;;;;7.95;6.85;;;15.80;99.90;;;;;;5092579;28;20446;-75
2022/06/29 04:41:20;;;;;;;25.13;8.02;;;15.90;99.90;;;;;;5090355;28;20377;-75
2022/06/29 04:43:46;;;;;;;7.78;6.93;;;15.90;99.90;;;;;;5090181;28;20051;-75
2022/06/29 04:46:22;;;;;;;7.40;6.50;;;15.90;99.90;;;;;;5090622;28;20455;-75
2022/06/29 04:48:56;;;;;;;7.57;6.63;;;15.90;99.90;;;;;;5087498;28;20481;-76
2022/06/29 04:51:22;;;;;;;12.68;7.78;;;15.90;99.90;;;;;;5073930;28;20044;-75
2022/06/29 04:53:48;;;;;;;7.90;7.20;;;15.90;99.90;;;;;;5084117;28;20048;-76
2022/06/29 04:56:16;;;;;;;7.65;7.00;;;16.00;99.90;;;;;;5075951;28;20047;-76
2022/06/29 04:58:43;;;;;;;8.07;6.90;;;16.00;99.90;;;;;;5089616;28;20116;-76
2022/06/29 05:01:08;;;;;;;7.65;6.90;;;16.00;99.90;;;;;;5074556;28;20949;-76
2022/06/29 05:03:34;;;;;;;10.15;6.80;;;16.10;99.90;;;;;;5093079;28;20134;-75
2022/06/29 05:06:00;;;;;;;8.20;6.32;;;16.10;99.90;;;;;;5095324;28;20032;-75
2022/06/29 05:08:26;;;;;;;7.47;6.78;;;16.20;99.90;;;;;;5078443;28;20396;-76
2022/06/29 05:10:51;;;;;;;8.35;6.45;;;16.30;99.90;;;;;;5093219;28;20043;-76
2022/06/29 05:13:17;;;;;;;7.13;6.40;;;16.30;99.90;;;;;;5076514;28;20876;-76
2022/06/29 05:15:42;;;;;;;7.15;6.53;;;16.40;99.90;;;;;;5089295;28;20036;-76
2022/06/29 05:18:08;;;;;;;7.72;6.90;;;16.50;99.90;;;;;;5073749;28;20039;-76
2022/06/29 05:20:34;;;;;;;8.45;6.65;;;16.60;99.90;;;;;;5080322;28;20032;-76
2022/06/29 05:22:59;;;;;;;8.00;6.50;;;16.70;99.90;;;;;;5092478;28;20104;-76
2022/06/29 05:25:25;;;;;;;6.53;6.03;;;16.90;99.90;;;;;;5093284;28;20134;-76
2022/06/29 05:27:51;;;;;;;6.38;5.78;;;17.00;99.90;;;;;;5093698;28;20058;-76
2022/06/29 05:30:16;;;;;;;8.93;6.70;;;17.20;99.90;;;;;;5093517;28;20086;-76
2022/06/29 05:32:42;;;;;;;6.82;5.80;;;17.30;99.90;;;;;;5076238;28;20553;-76
2022/06/29 05:35:09;;;;;;;6.03;5.32;;;17.40;99.90;;;;;;5089905;28;20040;-76
2022/06/29 05:37:35;;;;;;;12.80;6.47;;;17.40;99.90;;;;;;5081314;28;20036;-76
2022/06/29 05:40:01;;;;;;;8.20;5.68;;;17.50;99.90;;;;;;5092537;28;20046;-76
2022/06/29 05:42:27;;;;;;;10.30;5.88;;;17.60;99.90;;;;;;5084918;28;20080;-76
2022/06/29 05:44:53;;;;;;;7.30;5.38;;;17.80;99.90;;;;;;5092128;28;20027;-76
2022/06/29 05:47:18;;;;;;;6.10;5.40;;;17.80;99.90;;;;;;5089456;28;20040;-76
2022/06/29 05:49:44;;;;;;;6.28;4.72;;;18.00;99.90;;;;;;5090329;28;20044;-77
2022/06/29 05:52:09;;;;;;;9.88;5.22;;;19.00;99.90;;;;;;5090228;28;20032;-77
2022/06/29 05:54:35;;;;;;;8.88;4.65;;;20.30;99.90;;;;;;5078688;28;20534;-77
2022/06/29 05:57:01;;;;;;;5.70;4.47;;;21.70;99.90;;;;;;5086621;28;20138;-76
2022/06/29 05:59:26;;;;;;;6.53;4.18;;;23.00;99.90;;;;;;5087429;28;20038;-74
2022/06/29 06:01:52;;;;;;;4.20;3.80;;;24.10;98.90;;;;;;5088900;28;20388;-75
2022/06/29 06:04:18;;;;;;;5.65;3.97;;;25.10;92.60;;;;;;5090715;28;20039;-74
2022/06/29 06:06:43;;;;;;;4.40;4.00;;;25.20;93.70;;;;;;5091985;28;20040;-74
2022/06/29 06:09:09;;;;;;;4.07;3.67;;;26.30;94.20;;;;;;5092677;28;20203;-74
2022/06/29 06:11:35;;;;;;;5.07;3.65;;;26.70;92.50;;;;;;5075880;28;20050;-74
2022/06/29 06:14:01;;;;;;;3.78;3.38;;;27.60;91.40;;;;;;5095905;28;20044;-74
2022/06/29 06:16:27;;;;;;;4.47;3.30;;;28.10;90.70;;;;;;5096388;28;20085;-74
2022/06/29 06:18:52;;;;;;;4.72;2.80;;;28.20;87.30;;;;;;5094563;28;20039;-75
2022/06/29 06:21:18;;;;;;;4.93;2.92;;;28.70;86.10;;;;;;5078184;28;20119;-75
2022/06/29 06:23:43;;;;;;;4.75;2.45;;;29.10;83.20;;;;;;5071816;28;20067;-75
2022/06/29 06:26:09;;;;;;;3.95;2.55;;;28.80;78.20;;;;;;5098517;28;20423;-75
2022/06/29 06:28:35;;;;;;;4.50;2.40;;;29.00;80.60;;;;;;5097060;28;20043;-75
2022/06/29 06:31:00;;;;;;;3.10;2.10;;;29.20;78.40;;;;;;5096507;28;20047;-74
2022/06/29 06:33:26;;;;;;;4.93;2.17;;;29.50;71.70;;;;;;5096663;28;20509;-75
2022/06/29 06:35:52;;;;;;;2.53;2.25;;;29.40;75.10;;;;;;5093179;28;20062;-75
2022/06/29 06:38:18;;;;;;;2.58;2.38;;;29.60;75.00;;;;;;5093294;28;20469;-75
2022/06/29 06:43:28;;;;;;;5.57;1.88;;;29.40;70.50;;;;;;5086838;28;20605;-75
2022/06/29 06:45:53;;;;;;;4.55;2.53;;;29.10;71.90;;;;;;5096049;28;20071;-75
2022/06/29 06:48:19;;;;;;;4.13;2.20;;;28.80;68.40;;;;;;5096480;28;20454;-75
2022/06/29 06:50:44;;;;;;;4.72;2.08;;;28.40;70.00;;;;;;5096142;28;20381;-75
2022/06/29 06:53:10;;;;;;;4.07;2.33;;;28.30;72.10;;;;;;5096253;28;20074;-74
2022/06/29 06:55:35;;;;;;;3.42;2.10;;;29.10;74.20;;;;;;5091723;28;20158;-74
2022/06/29 06:58:01;;;;;;;3.30;1.92;;;29.70;73.60;;;;;;5085724;28;20036;-76
2022/06/29 07:00:30;;;;;;;3.90;2.30;;;30.10;70.60;;;;;;5093890;28;20073;-75
2022/06/29 07:02:56;;;;;;;7.30;2.85;;;30.30;70.30;;;;;;5078495;28;20039;-75
2022/06/29 07:05:22;;;;;;;3.28;2.25;;;29.90;69.30;;;;;;5095999;28;20043;-75
2022/06/29 07:07:47;;;;;;;3.22;1.90;;;30.30;70.40;;;;;;5090239;28;20122;-77
2022/06/29 07:10:13;;;;;;;4.85;2.10;;;30.20;68.50;;;;;;5087611;28;20154;-73
2022/06/29 07:12:39;;;;;;;6.38;2.33;;;30.30;68.60;;;;;;5090531;28;20043;-75
2022/06/29 07:15:05;;;;;;;5.53;2.05;;;30.60;66.70;;;;;;5079125;28;20043;-75
2022/06/29 07:17:31;;;;;;;2.83;2.20;;;30.50;67.10;;;;;;5093590;28;20031;-75
2022/06/29 07:19:57;;;;;;;2.70;2.00;;;30.80;66.80;;;;;;5095926;28;20507;-75
2022/06/29 07:22:23;;;;;;;3.78;1.90;;;30.60;65.90;;;;;;5095787;28;20130;-75
2022/06/29 07:24:49;;;;;;;2.22;1.52;;;31.20;67.30;;;;;;5094709;28;20039;-75
2022/06/29 07:27:15;;;;;;;2.28;1.50;;;31.20;67.10;;;;;;5095490;28;20043;-75
2022/06/29 07:29:40;;;;;;;2.13;1.70;;;31.20;65.90;;;;;;5091399;28;20028;-75
2022/06/29 07:32:06;;;;;;;2.70;1.50;;;31.90;67.40;;;;;;5093169;28;20048;-74
2022/06/29 07:34:32;;;;;;;4.07;1.52;;;32.00;63.50;;;;;;5095693;28;20131;-75
2022/06/29 07:36:57;;;;;;;4.18;1.50;;;32.00;64.40;;;;;;5078667;28;20035;-75
2022/06/29 07:39:23;;;;;;;1.77;1.40;;;32.00;63.10;;;;;;5078895;28;20046;-75
2022/06/29 07:41:48;;;;;;;4.20;1.42;;;31.90;60.00;;;;;;5093719;28;20425;-76
2022/06/29 07:44:14;;;;;;;2.13;1.40;;;31.70;63.30;;;;;;5094295;28;20035;-76
2022/06/29 07:46:40;;;;;;;1.83;1.33;;;31.70;64.00;;;;;;5087003;28;20054;-76
2022/06/29 07:49:05;;;;;;;3.30;1.58;;;31.80;63.00;;;;;;5095933;28;20035;-76
2022/06/29 07:51:31;;;;;;;3.25;1.52;;;31.00;59.50;;;;;;5094977;28;20047;-75
2022/06/29 07:53:56;;;;;;;2.28;1.30;;;30.90;58.50;;;;;;5092147;28;20040;-74
2022/06/29 07:56:22;;;;;;;3.90;1.70;;;30.60;62.00;;;;;;5095177;28;20065;-75
2022/06/29 07:58:47;;;;;;;2.75;1.42;;;30.80;61.30;;;;;;5092103;28;20117;-75
2022/06/29 08:01:13;;;;;;;1.60;1.50;;;30.40;60.40;;;;;;5093886;28;20416;-75
2022/06/29 08:03:38;;;;;;;3.80;1.40;;;30.20;62.20;;;;;;5089451;28;20047;-75
2022/06/29 08:06:07;;;;;;;2.55;1.55;;;29.00;61.70;;;;;;5090359;28;20081;-76
2022/06/29 08:08:32;;;;;;;3.38;1.50;;;29.30;63.00;;;;;;5094275;28;20192;-76
2022/06/29 08:10:58;;;;;;;4.68;1.50;;;29.20;63.40;;;;;;5094688;28;20127;-76
2022/06/29 08:13:23;;;;;;;2.50;1.38;;;29.00;63.50;;;;;;5094872;28;20051;-76
2022/06/29 08:15:49;;;;;;;2.38;1.48;;;28.30;64.30;;;;;;5090918;28;20036;-76
2022/06/29 08:18:16;;;;;;;3.03;1.63;;;27.60;64.90;;;;;;5110979;28;20630;-75
2022/06/29 08:20:43;;;;;;;2.88;1.38;;;27.10;66.60;;;;;;5090665;28;20054;-76
2022/06/29 08:23:09;;;;;;;6.18;1.73;;;27.00;67.60;;;;;;5071194;28;20610;-74
2022/06/29 08:25:34;;;;;;;5.20;1.92;;;26.60;64.90;;;;;;5067590;28;20045;-75
2022/06/29 08:28:01;;;;;;;2.47;1.58;;;26.40;66.30;;;;;;5093436;28;20695;-76
2022/06/29 08:30:27;;;;;;;2.33;1.67;;;25.70;66.70;;;;;;5082192;28;20366;-75
2022/06/29 08:32:53;;;;;;;3.08;1.73;;;25.50;68.90;;;;;;5111407;28;20667;-76
2022/06/29 08:35:18;;;;;;;1.60;1.48;;;25.50;71.00;;;;;;5094743;28;20114;-76
2022/06/29 08:37:45;;;;;;;1.83;1.48;;;25.50;70.90;;;;;;5087819;28;20067;-77
2022/06/29 08:40:14;;;;;;;1.83;1.42;;;25.50;72.00;;;;;;5091882;28;20594;-77
2022/06/29 08:42:39;;;;;;;2.13;1.38;;;25.70;73.80;;;;;;5076135;28;20040;-76
2022/06/29 08:45:07;;;;;;;2.25;1.83;;;25.70;71.30;;;;;;5094120;28;20367;-76
2022/06/29 08:47:33;;;;;;;4.25;1.75;;;25.70;70.90;;;;;;5092839;28;20039;-76
2022/06/29 08:49:58;;;;;;;4.15;1.70;;;25.80;71.40;;;;;;5092535;28;20282;-77
2022/06/29 08:52:26;;;;;;;3.17;1.95;;;26.10;71.90;;;;;;5093805;28;20134;-77
2022/06/29 08:54:53;;;;;;;4.85;1.50;;;26.40;71.80;;;;;;5099531;28;20054;-76
2022/06/29 08:57:21;;;;;;;4.22;1.50;;;26.50;71.90;;;;;;5102012;28;20111;-76
2022/06/29 08:59:47;;;;;;;3.78;2.00;;;26.40;69.90;;;;;;5090708;28;20068;-74
2022/06/29 09:02:13;;;;;;;2.30;1.60;;;26.10;70.00;;;;;;5086461;28;20488;-76
2022/06/29 09:04:39;;;;;;;2.80;1.33;;;25.90;71.40;;;;;;5073890;28;20058;-72
2022/06/29 09:07:05;;;;;;;2.58;1.58;;;25.60;72.60;;;;;;5112090;28;20035;-72
2022/06/29 09:09:51;;;;;;;4.88;1.50;;;25.40;72.30;;;;;;5083169;28;20493;-73
2022/06/29 09:12:19;;;;;;;2.38;1.75;;;25.50;73.30;;;;;;5070144;28;20075;-72
2022/06/29 09:14:45;;;;;;;1.60;1.50;;;25.60;73.00;;;;;;5070067;28;20045;-73
2022/06/29 09:17:11;;;;;;;2.30;1.65;;;25.60;70.70;;;;;;5064156;28;20037;-73
2022/06/29 09:19:37;;;;;;;2.58;1.50;;;25.60;70.00;;;;;;5087154;28;20402;-73
2022/06/29 09:22:03;;;;;;;2.03;1.60;;;25.80;70.00;;;;;;5069872;28;20043;-72
2022/06/29 09:24:32;;;;;;;3.83;1.65;;;25.90;68.40;;;;;;5071374;28;20032;-73
2022/06/29 09:27:00;;;;;;;3.42;1.90;;;26.10;72.20;;;;;;5069042;28;20040;-73
2022/06/29 09:29:29;;;;;;;2.08;1.50;;;26.10;67.50;;;;;;5085514;28;20044;-73
2022/06/29 09:32:06;;;;;;;3.13;1.60;;;26.10;69.50;;;;;;5089843;28;20044;-72
2022/06/29 09:34:33;;;;;;;2.75;1.60;;;26.30;70.10;;;;;;5089669;28;20107;-73
2022/06/29 09:37:00;;;;;;;2.55;1.60;;;26.30;68.40;;;;;;5068475;28;20523;-74
2022/06/29 09:39:39;;;;;;;2.80;1.70;;;26.40;68.90;;;;;;5070548;28;20389;-74
2022/06/29 09:42:10;;;;;;;1.83;1.50;;;26.50;67.50;;;;;;5074256;28;20397;-74
2022/06/29 09:44:36;;;;;;;6.07;1.77;;;26.50;67.60;;;;;;5073069;28;20393;-74
2022/06/29 09:47:05;;;;;;;4.57;1.60;;;26.60;66.40;;;;;;5081226;28;20071;-74
2022/06/29 09:49:32;;;;;;;2.10;1.90;;;26.70;66.00;;;;;;5072236;28;20070;-74
2022/06/29 09:51:59;;;;;;;3.05;1.70;;;26.80;68.40;;;;;;5082408;28;20559;-74
2022/06/29 09:54:38;;;;;;;2.10;1.90;;;27.00;69.00;;;;;;5087922;28;20127;-73
2022/06/29 09:57:05;;;;;;;2.33;1.70;;;27.10;68.30;;;;;;5090215;28;20378;-72
2022/06/29 10:02:40;;;;;;;4.85;1.70;;;26.80;68.00;;;;;;5085832;28;20036;-73
2022/06/29 10:05:23;;;;;;;2.83;1.67;;;26.90;70.50;;;;;;5086775;28;20036;-72
2022/06/29 10:07:50;;;;;;;2.33;1.77;;;26.90;69.50;;;;;;5060870;28;20041;-72
2022/06/29 10:10:19;;;;;;;2.08;1.73;;;26.90;67.20;;;;;;5068599;28;20040;-73
2022/06/29 10:15:55;;;;;;;2.25;1.65;;;26.80;68.20;;;;;;5052724;28;20048;-73
2022/06/29 10:18:27;;;;;;;2.70;2.03;;;26.60;69.70;;;;;;5068726;28;20041;-73
2022/06/29 10:20:54;;;;;;;2.92;1.95;;;26.80;67.80;;;;;;5052826;28;20119;-72
2022/06/29 10:23:51;;;;;;;2.78;1.50;;;27.10;70.50;;;;;;5068479;28;20053;-73
2022/06/29 10:28:55;;;;;;;2.58;1.60;;;27.40;66.20;;;;;;5062120;28;20053;-73
2022/06/29 10:31:52;;;;;;;1.80;1.70;;;27.50;70.30;;;;;;5065788;28;20044;-72
2022/06/29 10:34:32;;;;;;;3.22;1.90;;;27.50;66.40;;;;;;5067695;28;20047;-73
2022/06/29 10:37:14;;;;;;;1.95;1.80;;;27.40;68.10;;;;;;5042859;28;20098;-72
2022/06/29 10:39:48;;;;;;;5.30;2.00;;;27.50;72.70;;;;;;5059552;28;20089;-73
2022/06/29 10:45:22;;;;;;;3.88;1.65;;;27.40;68.20;;;;;;5063948;28;20107;-73
2022/06/29 10:47:57;;;;;;;2.22;1.80;;;27.30;72.90;;;;;;5059054;28;20527;-72
2022/06/29 10:50:26;;;;;;;2.35;1.55;;;27.30;68.50;;;;;;5060432;28;20123;-72
2022/06/29 10:52:54;;;;;;;1.90;1.80;;;27.50;70.10;;;;;;5069372;28;20041;-73
2022/06/29 10:55:21;;;;;;;2.67;1.58;;;27.70;69.00;;;;;;5071336;28;20067;-73
2022/06/29 10:57:47;;;;;;;1.95;1.85;;;27.80;69.90;;;;;;5073105;28;20455;-73
2022/06/29 11:00:16;;;;;;;4.07;1.80;;;28.00;69.60;;;;;;5068627;28;20037;-73
2022/06/29 11:02:43;;;;;;;3.90;1.80;;;28.00;67.00;;;;;;5054892;28;20064;-72
2022/06/29 11:05:09;;;;;;;1.88;1.55;;;27.90;69.00;;;;;;5067890;28;20051;-73
2022/06/29 11:13:04;;;;;;;3.15;1.75;;;28.10;65.00;;;;;;5072544;28;20040;-73
2022/06/29 11:15:41;;;;;;;2.40;1.80;;;28.10;64.90;;;;;;5083427;28;20491;-73
2022/06/29 11:18:33;;;;;;;1.90;1.48;;;28.20;67.10;;;;;;5090978;28;20043;-73
2022/06/29 11:21:02;;;;;;;2.30;2.00;;;28.40;63.70;;;;;;5071801;28;20635;-73
2022/06/29 11:23:29;;;;;;;2.55;1.65;;;28.40;64.50;;;;;;5089785;28;20028;-72
2022/06/29 11:25:56;;;;;;;1.50;1.40;;;28.10;60.80;;;;;;5078955;28;20040;-73
2022/06/29 11:28:27;;;;;;;1.83;1.55;;;27.70;60.70;;;;;;5086032;28;20036;-73
2022/06/29 11:30:57;;;;;;;;;;;27.50;63.80;;;;;;5072473;28;20045;-73
2022/06/29 11:33:26;;;;;;;3.20;1.50;;;27.60;67.50;;;;;;5074122;28;20024;-73
2022/06/29 11:35:53;;;;;;;3.00;2.15;;;27.70;65.80;;;;;;5086331;28;20047;-73
2022/06/29 11:38:18;;;;;;;3.53;2.00;;;27.80;67.80;;;;;;5065604;28;20044;-73
2022/06/29 11:40:46;;;;;;;1.90;1.65;;;28.00;65.60;;;;;;5091707;28;20414;-73
2022/06/29 11:43:15;;;;;;;2.03;1.40;;;28.00;63.80;;;;;;5090213;28;20656;-73
2022/06/29 11:45:44;;;;;;;2.00;1.75;;;28.00;64.40;;;;;;5075295;28;20523;-73
2022/06/29 11:48:18;;;;;;;2.95;1.85;;;28.10;63.80;;;;;;5091921;28;20040;-73
2022/06/29 11:50:48;;;;;;;4.80;1.60;;;28.30;63.90;;;;;;5083458;28;20430;-73
2022/06/29 11:53:33;;;;;;;3.90;1.80;;;28.50;67.00;;;;;;5071424;28;20094;-73
2022/06/29 11:55:59;;;;;;;2.15;1.50;;;28.30;63.60;;;;;;5071215;28;20143;-73
2022/06/29 11:58:25;;;;;;;4.43;1.90;;;28.40;66.00;;;;;;5083429;28;20167;-72
2022/06/29 12:00:54;;;;;;;3.05;1.98;;;28.30;63.60;;;;;;5080453;28;20044;-73
2022/06/29 12:03:19;;;;;;;5.68;2.25;;;28.30;62.00;;;;;;5073210;28;20058;-73
2022/06/29 12:05:58;;;;;;;2.47;2.08;;;28.20;63.30;;;;;;5085714;28;20844;-73
2022/06/29 12:08:24;;;;;;;2.72;2.08;;;28.10;63.20;;;;;;5089722;28;20032;-73
2022/06/29 12:10:50;;;;;;;2.78;2.28;;;28.10;66.60;;;;;;5089490;28;20040;-72
2022/06/29 12:13:17;;;;;;;2.83;2.22;;;28.30;66.70;;;;;;5089997;28;20119;-72
2022/06/29 12:15:43;;;;;;;2.60;2.30;;;28.40;66.90;;;;;;5093988;28;20042;-72
2022/06/29 12:18:08;;;;;;;2.50;2.10;;;28.60;65.50;;;;;;5076722;28;20032;-72
2022/06/29 12:20:34;;;;;;;2.55;2.35;;;28.50;66.10;;;;;;5094555;28;20047;-72
2022/06/29 12:23:00;;;;;;;3.72;2.50;;;28.20;65.90;;;;;;5093946;28;20051;-72
2022/06/29 12:25:25;;;;;;;3.65;2.20;;;27.80;66.30;;;;;;5103468;28;20098;-75
2022/06/29 12:27:51;;;;;;;3.80;2.42;;;27.90;68.20;;;;;;5072590;28;20047;-74
2022/06/29 12:30:17;;;;;;;2.95;2.75;;;28.10;68.50;;;;;;5090050;28;20062;-75
2022/06/29 12:32:42;;;;;;;4.68;2.90;;;28.10;66.90;;;;;;5085780;28;20031;-74
2022/06/29 12:35:08;;;;;;;3.50;3.20;;;28.20;68.10;;;;;;5089195;28;20038;-75
2022/06/29 12:37:34;;;;;;;3.20;2.90;;;28.30;68.50;;;;;;5089694;28;20739;-75
2022/06/29 12:39:59;;;;;;;5.10;3.05;;;28.30;68.60;;;;;;5091105;28;20074;-75
2022/06/29 12:42:25;;;;;;;4.00;3.42;;;28.30;66.70;;;;;;5091373;28;20047;-75
2022/06/29 12:44:50;;;;;;;3.53;3.08;;;28.10;66.00;;;;;;5093580;28;20071;-74
2022/06/29 12:47:16;;;;;;;4.18;3.53;;;27.90;67.80;;;;;;5093438;28;20392;-74
2022/06/29 12:49:42;;;;;;;3.67;3.38;;;27.90;68.90;;;;;;5093865;28;20086;-75
2022/06/29 12:52:07;;;;;;;3.55;3.33;;;27.80;68.40;;;;;;5093823;28;20054;-74
2022/06/29 12:54:33;;;;;;;3.83;3.42;;;27.90;69.20;;;;;;5085474;28;20055;-74
2022/06/29 12:56:59;;;;;;;3.47;3.10;;;28.10;69.40;;;;;;5092756;28;20039;-75
2022/06/29 12:59:24;;;;;;;5.85;3.15;;;28.50;70.30;;;;;;5069058;28;20062;-74
2022/06/29 13:01:51;;;;;;;5.35;3.40;;;28.60;67.10;;;;;;5092910;28;20507;-74
2022/06/29 13:04:19;;;;;;;3.88;3.22;;;28.50;66.80;;;;;;5086581;28;20048;-74
2022/06/29 13:06:45;;;;;;;4.90;3.25;;;28.40;68.60;;;;;;5090337;28;20138;-75
2022/06/29 13:09:10;;;;;;;3.53;3.22;;;28.40;67.10;;;;;;5068171;28;20143;-74